ソチ の空港の天気 - METARとTAF

ソチ空港 ( URSS / AER ) - ロシア ソチ
飛行場実況気象(Metar)
観測時間06/17 22:30 MSK (06/17 19:30 UTC)
風向・風速東 2m/s
視程10km以上
天気現象
全天の8割程度の雲 雲底高度 400m
気温25℃
湿度89%
気圧1008hPa
METARURSS 171930Z 08002MPS 9999 BKN013 25/23 Q1008 R02/010070 R06/010070 NOSIG RMK R06/08003MPS MT OBSC QFE755
過去の天気等 Google飛行場航空写真 Wunderground天気予報

過去48時間のMETAR

飛行場予報(TAF)
発表時間: 6/17 19:56 MSK (6/17 16:56 UTC)
予報対象時間: 17日21時 MSK ~ 18日21時 MSK
風向・風速不定 1m/s
視程10km以上
全天の8割程度の雲 雲底高度 340m
全天の4割程度の積乱雲 雲底高度 910m
全天の8割程度の雲 雲底高度 3050m
17日21時 MSK ~ 18日5時 MSK に一時的に
風向・風速不定 7m/s
天気現象弱い雷雨
18日5時 MSK ~ 18日6時 MSK に徐々に
風向・風速北東 5m/s
なし
18日9時 MSK ~ 18日10時 MSK に徐々に
風向・風速南西 4m/s
少しの塔状積雲 雲底高度 910m
18日12時 MSK ~ 18日13時 MSK に徐々に
風向・風速西 6m/s
少しの積乱雲 雲底高度 910m
全天の4割程度の雲 雲底高度 3050m
18日13時 MSK ~ 18日20時 MSK に一時的に
風向・風速不定 7m/s 瞬間風速 12m/s
天気現象弱い雷雨
18日20時 MSK から
風向・風速不定 1m/s
視程10km以上
全天の8割程度の雲 雲底高度 340m
TAF URSS 171656Z 1718/1818 VRB01MPS 9999 BKN011 SCT030CB BKN100
TEMPO 1718/1802 VRB07MPS -TSRA
BECMG 1802/1803 05005MPS NSC
BECMG 1806/1807 23004MPS FEW030TCU
BECMG 1809/1810 28006MPS FEW030CB SCT100
TEMPO 1810/1817 VRB07G12MPS -TSRA
FM181700 VRB01MPS 9999 BKN011